createdAt,value
2018-02-09T00:03:04.308Z,-2.68
2018-02-09T00:13:04.317Z,-2.79
2018-02-09T00:23:04.255Z,-2.64
2018-02-09T00:33:04.304Z,-2.71
2018-02-09T00:43:04.254Z,-2.61
2018-02-09T00:53:04.264Z,-2.71
2018-02-09T01:03:04.701Z,-2.6
2018-02-09T01:13:04.270Z,-2.57
2018-02-09T01:23:04.244Z,-2.38
2018-02-09T01:33:04.329Z,-2.36
2018-02-09T01:43:04.279Z,-2.2
2018-02-09T01:53:04.365Z,-2.06
2018-02-09T02:03:04.339Z,-1.87
2018-02-09T02:13:04.381Z,-1.78
2018-02-09T02:23:04.326Z,-1.77
2018-02-09T02:33:04.394Z,-1.51
2018-02-09T02:43:04.410Z,-1.36
2018-02-09T02:53:04.412Z,-1.24
2018-02-09T03:03:04.326Z,-1.28
2018-02-09T03:13:04.425Z,-1.23
2018-02-09T03:23:04.372Z,-1.27
2018-02-09T03:33:04.368Z,-1.38
2018-02-09T03:43:04.422Z,-1.12
2018-02-09T03:53:04.582Z,-1.02
2018-02-09T04:03:04.449Z,-0.91
2018-02-09T04:13:04.451Z,-0.73
2018-02-09T04:23:04.467Z,-0.66
2018-02-09T04:33:04.422Z,-0.55
2018-02-09T04:43:04.497Z,-0.62
2018-02-09T04:53:04.455Z,-0.55
2018-02-09T05:03:04.410Z,-0.55
2018-02-09T05:13:04.470Z,-0.55
2018-02-09T05:23:04.416Z,-0.6
2018-02-09T05:33:04.476Z,-0.55
2018-02-09T05:43:04.462Z,-0.54
2018-02-09T05:53:04.544Z,-0.55
2018-02-09T06:03:04.483Z,-0.52
2018-02-09T06:13:04.577Z,-0.54
2018-02-09T06:23:04.501Z,-0.51
2018-02-09T06:33:04.579Z,-0.41
2018-02-09T06:43:04.541Z,-0.45
2018-02-09T06:53:04.467Z,-0.54
2018-02-09T07:03:04.582Z,-0.81
2018-02-09T07:13:04.826Z,-1.07
2018-02-09T07:23:04.579Z,-1.24
2018-02-09T07:33:04.546Z,-1.27
2018-02-09T07:43:04.618Z,-1.2
2018-02-09T07:53:04.559Z,-1.25
2018-02-09T08:03:04.663Z,-1.09
2018-02-09T08:13:04.632Z,-0.87
2018-02-09T08:23:04.593Z,-0.45
2018-02-09T08:33:04.647Z,-0.3
2018-02-09T08:43:04.607Z,0
2018-02-09T08:53:04.650Z,0.18
2018-02-09T09:03:04.591Z,0.41
2018-02-09T09:13:04.685Z,0.58
2018-02-09T09:23:04.651Z,0.48
2018-02-09T09:33:04.721Z,0.83
2018-02-09T09:43:04.676Z,0.88
2018-02-09T09:53:04.738Z,1
2018-02-09T10:03:04.647Z,1.21
2018-02-09T10:13:04.655Z,1.34
2018-02-09T10:23:04.679Z,1.57
2018-02-09T10:33:04.772Z,1.57
2018-02-09T10:43:04.679Z,1.89
2018-02-09T10:53:04.673Z,2.1
2018-02-09T11:03:04.737Z,2.4
2018-02-09T11:13:04.702Z,2.46
2018-02-09T11:23:04.772Z,2.56
2018-02-09T11:33:04.766Z,2.71
2018-02-09T11:43:04.773Z,2.89
2018-02-09T11:53:04.757Z,2.94
2018-02-09T12:03:04.748Z,2.92
2018-02-09T12:13:04.789Z,3.25
2018-02-09T12:23:04.712Z,3.34
2018-02-09T12:33:04.920Z,3.61
2018-02-09T12:43:04.766Z,3.5
2018-02-09T12:53:04.826Z,3.54
2018-02-09T13:03:04.804Z,3.61
2018-02-09T13:13:04.824Z,3.54
2018-02-09T13:23:04.812Z,3.31
2018-02-09T13:33:04.869Z,3.24
2018-02-09T13:43:04.836Z,3.16
2018-02-09T13:53:04.858Z,3.16
2018-02-09T14:03:04.872Z,3.09
2018-02-09T14:13:04.904Z,2.98
2018-02-09T14:23:04.940Z,3
2018-02-09T14:33:04.906Z,2.79
2018-02-09T14:43:04.888Z,2.85
2018-02-09T14:53:05.473Z,2.64
2018-02-09T15:03:04.862Z,2.73
2018-02-09T15:13:15.010Z,2.4
2018-02-09T15:23:22.586Z,2.27
2018-02-09T15:33:04.971Z,1.97
2018-02-09T15:43:04.944Z,2.09
2018-02-09T15:53:04.872Z,1.72
2018-02-09T16:03:04.967Z,1.44
2018-02-09T16:13:04.909Z,1.04
2018-02-09T16:23:04.989Z,0.75
2018-02-09T16:33:04.957Z,0.67
2018-02-09T16:43:05.056Z,0.51
2018-02-09T16:53:06.979Z,0.38
2018-02-09T17:03:05.035Z,0.16
2018-02-09T17:13:05.062Z,0.13
2018-02-09T17:23:05.056Z,-0.04
2018-02-09T17:33:05.013Z,0.03
2018-02-09T17:43:05.103Z,0.02
2018-02-09T17:53:05.035Z,-0.08
2018-02-09T18:03:04.978Z,-0.15
2018-02-09T18:13:05.061Z,-0.11
2018-02-09T18:23:05.021Z,-0.41
2018-02-09T18:33:05.041Z,-0.6
2018-02-09T18:43:05.256Z,-0.57
2018-02-09T18:53:05.109Z,-0.65
2018-02-09T19:03:05.087Z,-0.7
2018-02-09T19:13:05.103Z,-0.6
2018-02-09T19:23:05.133Z,-0.31
2018-02-09T19:33:05.131Z,0.12
2018-02-09T19:43:05.101Z,0.18
2018-02-09T19:53:05.077Z,0.65
2018-02-09T20:03:05.504Z,0.76
2018-02-09T20:13:05.136Z,0.9
2018-02-09T20:23:05.137Z,1
2018-02-09T20:33:06.760Z,0.83
2018-02-09T20:43:05.090Z,0.65
2018-02-09T20:53:05.137Z,0.27
2018-02-09T21:03:05.133Z,0.58
2018-02-09T21:13:06.137Z,0.8
2018-02-09T21:33:05.202Z,1.01
2018-02-09T21:43:05.214Z,1.01
2018-02-09T21:53:05.231Z,1.24
2018-02-09T22:03:05.543Z,1.36
2018-02-09T22:13:05.256Z,1.6
2018-02-09T22:23:05.225Z,1.55
2018-02-09T22:33:05.224Z,1.71
2018-02-09T22:43:05.186Z,1.5
2018-02-09T22:53:05.272Z,1.22
2018-02-09T23:03:05.244Z,0.86
2018-02-09T23:13:05.358Z,0.45
2018-02-09T23:23:05.377Z,0.02
2018-02-09T23:33:05.326Z,-0.04
2018-02-09T23:43:05.228Z,-0.06
2018-02-09T23:53:05.304Z,-0.19
